sensor_id;sensor_type;location;lat;lon;timestamp;P1;durP1;ratioP1;P2;durP2;ratioP2
65271;SDS011;51868;48.812;8.198;2023-02-07T00:00:23;7.70;;;3.70;;
65271;SDS011;51868;48.812;8.198;2023-02-07T00:02:51;6.28;;;3.63;;
65271;SDS011;51868;48.812;8.198;2023-02-07T00:05:21;7.45;;;3.75;;
65271;SDS011;51868;48.812;8.198;2023-02-07T00:07:50;7.50;;;3.92;;
65271;SDS011;51868;48.812;8.198;2023-02-07T00:10:18;5.47;;;3.47;;
65271;SDS011;51868;48.812;8.198;2023-02-07T00:12:45;6.43;;;3.95;;
65271;SDS011;51868;48.812;8.198;2023-02-07T00:15:13;7.07;;;4.25;;
65271;SDS011;51868;48.812;8.198;2023-02-07T00:17:41;6.20;;;4.03;;
65271;SDS011;51868;48.812;8.198;2023-02-07T00:20:09;8.25;;;4.38;;
65271;SDS011;51868;48.812;8.198;2023-02-07T00:22:38;6.47;;;3.58;;
65271;SDS011;51868;48.812;8.198;2023-02-07T00:25:07;5.65;;;3.88;;
65271;SDS011;51868;48.812;8.198;2023-02-07T00:27:35;7.05;;;3.97;;
65271;SDS011;51868;48.812;8.198;2023-02-07T00:30:03;6.68;;;3.80;;
65271;SDS011;51868;48.812;8.198;2023-02-07T00:32:32;6.50;;;3.53;;
65271;SDS011;51868;48.812;8.198;2023-02-07T00:35:00;8.40;;;4.20;;
65271;SDS011;51868;48.812;8.198;2023-02-07T00:37:28;8.93;;;4.85;;
65271;SDS011;51868;48.812;8.198;2023-02-07T00:39:56;8.48;;;4.22;;
65271;SDS011;51868;48.812;8.198;2023-02-07T00:42:25;9.43;;;4.57;;
65271;SDS011;51868;48.812;8.198;2023-02-07T00:44:53;6.93;;;4.13;;
65271;SDS011;51868;48.812;8.198;2023-02-07T00:47:21;10.02;;;4.82;;
65271;SDS011;51868;48.812;8.198;2023-02-07T00:49:48;7.57;;;4.18;;
65271;SDS011;51868;48.812;8.198;2023-02-07T00:52:16;8.68;;;4.40;;
65271;SDS011;51868;48.812;8.198;2023-02-07T00:54:44;8.48;;;4.82;;
65271;SDS011;51868;48.812;8.198;2023-02-07T00:57:12;7.20;;;4.60;;
65271;SDS011;51868;48.812;8.198;2023-02-07T00:59:41;7.00;;;4.55;;
65271;SDS011;51868;48.812;8.198;2023-02-07T01:02:09;7.32;;;4.32;;
65271;SDS011;51868;48.812;8.198;2023-02-07T01:04:37;9.95;;;4.95;;
65271;SDS011;51868;48.812;8.198;2023-02-07T01:07:04;8.68;;;5.07;;
65271;SDS011;51868;48.812;8.198;2023-02-07T01:09:32;6.65;;;4.40;;
65271;SDS011;51868;48.812;8.198;2023-02-07T01:12:00;10.30;;;4.93;;
65271;SDS011;51868;48.812;8.198;2023-02-07T01:14:28;8.05;;;4.60;;
65271;SDS011;51868;48.812;8.198;2023-02-07T01:16:57;9.65;;;5.50;;
65271;SDS011;51868;48.812;8.198;2023-02-07T01:19:25;8.50;;;4.80;;
65271;SDS011;51868;48.812;8.198;2023-02-07T01:21:52;8.73;;;5.00;;
65271;SDS011;51868;48.812;8.198;2023-02-07T01:24:20;7.82;;;5.00;;
65271;SDS011;51868;48.812;8.198;2023-02-07T01:26:47;8.45;;;5.38;;
65271;SDS011;51868;48.812;8.198;2023-02-07T01:29:15;8.55;;;5.45;;
65271;SDS011;51868;48.812;8.198;2023-02-07T01:31:43;9.68;;;5.72;;
65271;SDS011;51868;48.812;8.198;2023-02-07T01:34:12;7.93;;;5.32;;
65271;SDS011;51868;48.812;8.198;2023-02-07T01:36:40;7.93;;;5.05;;
65271;SDS011;51868;48.812;8.198;2023-02-07T01:39:08;8.77;;;4.88;;
65271;SDS011;51868;48.812;8.198;2023-02-07T01:41:35;7.90;;;5.30;;
65271;SDS011;51868;48.812;8.198;2023-02-07T01:44:04;8.68;;;5.65;;
65271;SDS011;51868;48.812;8.198;2023-02-07T01:46:33;7.70;;;4.68;;
65271;SDS011;51868;48.812;8.198;2023-02-07T01:49:03;9.38;;;5.07;;
65271;SDS011;51868;48.812;8.198;2023-02-07T01:51:36;9.60;;;4.75;;
65271;SDS011;51868;48.812;8.198;2023-02-07T01:54:08;11.73;;;5.75;;
65271;SDS011;51868;48.812;8.198;2023-02-07T01:56:40;7.93;;;5.15;;
65271;SDS011;51868;48.812;8.198;2023-02-07T01:59:11;9.85;;;5.65;;
65271;SDS011;51868;48.812;8.198;2023-02-07T02:01:39;11.63;;;6.50;;
65271;SDS011;51868;48.812;8.198;2023-02-07T02:04:08;8.90;;;4.90;;
65271;SDS011;51868;48.812;8.198;2023-02-07T02:06:37;9.75;;;5.32;;
65271;SDS011;51868;48.812;8.198;2023-02-07T02:09:08;9.00;;;5.22;;
65271;SDS011;51868;48.812;8.198;2023-02-07T02:14:53;8.82;;;5.57;;
65271;SDS011;51868;48.812;8.198;2023-02-07T02:17:34;8.95;;;5.55;;
65271;SDS011;51868;48.812;8.198;2023-02-07T02:20:32;11.00;;;5.30;;
65271;SDS011;51868;48.812;8.198;2023-02-07T02:23:17;9.15;;;5.57;;
65271;SDS011;51868;48.812;8.198;2023-02-07T02:26:09;8.60;;;5.18;;
65271;SDS011;51868;48.812;8.198;2023-02-07T02:29:01;7.65;;;5.00;;
65271;SDS011;51868;48.812;8.198;2023-02-07T02:32:02;9.15;;;5.45;;
65271;SDS011;51868;48.812;8.198;2023-02-07T02:34:42;12.35;;;5.90;;
65271;SDS011;51868;48.812;8.198;2023-02-07T02:37:16;11.27;;;5.63;;
65271;SDS011;51868;48.812;8.198;2023-02-07T02:39:53;10.20;;;5.35;;
65271;SDS011;51868;48.812;8.198;2023-02-07T02:42:29;8.93;;;5.70;;
65271;SDS011;51868;48.812;8.198;2023-02-07T02:45:00;9.00;;;5.50;;
65271;SDS011;51868;48.812;8.198;2023-02-07T02:47:30;10.55;;;6.40;;
65271;SDS011;51868;48.812;8.198;2023-02-07T02:50:00;9.18;;;5.82;;
65271;SDS011;51868;48.812;8.198;2023-02-07T02:52:29;9.60;;;5.90;;
65271;SDS011;51868;48.812;8.198;2023-02-07T02:55:15;11.43;;;6.05;;
65271;SDS011;51868;48.812;8.198;2023-02-07T02:57:50;12.90;;;5.80;;
65271;SDS011;51868;48.812;8.198;2023-02-07T03:00:31;8.77;;;5.60;;
65271;SDS011;51868;48.812;8.198;2023-02-07T03:03:15;11.57;;;5.88;;
65271;SDS011;51868;48.812;8.198;2023-02-07T03:05:57;9.10;;;5.57;;
65271;SDS011;51868;48.812;8.198;2023-02-07T03:08:38;6.82;;;4.45;;
65271;SDS011;51868;48.812;8.198;2023-02-07T03:11:10;7.95;;;5.10;;
65271;SDS011;51868;48.812;8.198;2023-02-07T03:13:44;9.70;;;5.07;;
65271;SDS011;51868;48.812;8.198;2023-02-07T03:16:22;11.20;;;6.25;;
65271;SDS011;51868;48.812;8.198;2023-02-07T03:18:55;10.75;;;5.72;;
65271;SDS011;51868;48.812;8.198;2023-02-07T03:21:29;14.32;;;6.45;;
65271;SDS011;51868;48.812;8.198;2023-02-07T03:24:00;12.57;;;6.55;;
65271;SDS011;51868;48.812;8.198;2023-02-07T03:26:31;17.13;;;7.10;;
65271;SDS011;51868;48.812;8.198;2023-02-07T03:29:00;12.15;;;7.00;;
65271;SDS011;51868;48.812;8.198;2023-02-07T03:31:32;12.25;;;7.25;;
65271;SDS011;51868;48.812;8.198;2023-02-07T03:34:03;10.00;;;6.00;;
65271;SDS011;51868;48.812;8.198;2023-02-07T03:36:37;13.90;;;7.28;;
65271;SDS011;51868;48.812;8.198;2023-02-07T03:39:08;10.48;;;6.18;;
65271;SDS011;51868;48.812;8.198;2023-02-07T03:41:38;11.05;;;6.43;;
65271;SDS011;51868;48.812;8.198;2023-02-07T03:44:10;12.38;;;7.05;;
65271;SDS011;51868;48.812;8.198;2023-02-07T03:46:39;17.13;;;7.20;;
65271;SDS011;51868;48.812;8.198;2023-02-07T03:49:07;13.68;;;6.93;;
65271;SDS011;51868;48.812;8.198;2023-02-07T03:51:38;11.43;;;5.88;;
65271;SDS011;51868;48.812;8.198;2023-02-07T03:54:05;11.02;;;5.95;;
65271;SDS011;51868;48.812;8.198;2023-02-07T03:56:33;15.45;;;6.43;;
65271;SDS011;51868;48.812;8.198;2023-02-07T03:59:01;11.00;;;5.93;;
65271;SDS011;51868;48.812;8.198;2023-02-07T04:01:29;10.48;;;6.00;;
65271;SDS011;51868;48.812;8.198;2023-02-07T04:03:56;13.02;;;5.53;;
65271;SDS011;51868;48.812;8.198;2023-02-07T04:06:24;15.07;;;6.20;;
65271;SDS011;51868;48.812;8.198;2023-02-07T04:08:53;10.60;;;5.65;;
65271;SDS011;51868;48.812;8.198;2023-02-07T04:11:21;11.73;;;5.90;;
65271;SDS011;51868;48.812;8.198;2023-02-07T04:13:48;9.48;;;5.75;;
65271;SDS011;51868;48.812;8.198;2023-02-07T04:16:16;9.48;;;4.93;;
65271;SDS011;51868;48.812;8.198;2023-02-07T04:18:44;9.73;;;5.10;;
65271;SDS011;51868;48.812;8.198;2023-02-07T04:21:12;10.82;;;5.72;;
65271;SDS011;51868;48.812;8.198;2023-02-07T04:23:40;8.20;;;5.13;;
65271;SDS011;51868;48.812;8.198;2023-02-07T04:26:09;8.07;;;5.03;;
65271;SDS011;51868;48.812;8.198;2023-02-07T04:28:37;9.20;;;5.57;;
65271;SDS011;51868;48.812;8.198;2023-02-07T04:31:04;11.15;;;5.47;;
65271;SDS011;51868;48.812;8.198;2023-02-07T04:33:32;9.48;;;5.63;;
65271;SDS011;51868;48.812;8.198;2023-02-07T04:36:01;8.52;;;5.60;;
65271;SDS011;51868;48.812;8.198;2023-02-07T04:38:29;11.38;;;6.05;;
65271;SDS011;51868;48.812;8.198;2023-02-07T04:40:58;9.85;;;5.68;;
65271;SDS011;51868;48.812;8.198;2023-02-07T04:43:30;11.80;;;5.78;;
65271;SDS011;51868;48.812;8.198;2023-02-07T04:45:58;13.00;;;5.90;;
65271;SDS011;51868;48.812;8.198;2023-02-07T04:48:26;8.85;;;5.20;;
65271;SDS011;51868;48.812;8.198;2023-02-07T04:50:54;11.75;;;5.82;;
65271;SDS011;51868;48.812;8.198;2023-02-07T04:53:22;9.82;;;6.00;;
65271;SDS011;51868;48.812;8.198;2023-02-07T04:55:50;11.30;;;6.70;;
65271;SDS011;51868;48.812;8.198;2023-02-07T04:58:19;11.60;;;6.07;;
65271;SDS011;51868;48.812;8.198;2023-02-07T05:00:49;10.23;;;6.38;;
65271;SDS011;51868;48.812;8.198;2023-02-07T05:03:16;15.40;;;7.07;;
65271;SDS011;51868;48.812;8.198;2023-02-07T05:05:44;12.95;;;7.18;;
65271;SDS011;51868;48.812;8.198;2023-02-07T05:08:12;13.00;;;6.95;;
65271;SDS011;51868;48.812;8.198;2023-02-07T05:10:40;11.30;;;7.03;;
65271;SDS011;51868;48.812;8.198;2023-02-07T05:13:07;13.00;;;7.45;;
65271;SDS011;51868;48.812;8.198;2023-02-07T05:15:35;11.35;;;7.00;;
65271;SDS011;51868;48.812;8.198;2023-02-07T05:18:05;13.25;;;7.50;;
65271;SDS011;51868;48.812;8.198;2023-02-07T05:20:32;12.68;;;6.38;;
65271;SDS011;51868;48.812;8.198;2023-02-07T05:23:00;15.30;;;7.75;;
65271;SDS011;51868;48.812;8.198;2023-02-07T05:25:28;12.45;;;7.53;;
65271;SDS011;51868;48.812;8.198;2023-02-07T05:27:55;12.90;;;7.32;;
65271;SDS011;51868;48.812;8.198;2023-02-07T05:30:23;14.63;;;8.38;;
65271;SDS011;51868;48.812;8.198;2023-02-07T05:32:51;13.52;;;7.63;;
65271;SDS011;51868;48.812;8.198;2023-02-07T05:35:31;12.18;;;8.00;;
65271;SDS011;51868;48.812;8.198;2023-02-07T05:37:59;13.20;;;8.10;;
65271;SDS011;51868;48.812;8.198;2023-02-07T05:40:28;14.60;;;8.18;;
65271;SDS011;51868;48.812;8.198;2023-02-07T05:42:55;14.00;;;8.02;;
65271;SDS011;51868;48.812;8.198;2023-02-07T05:45:23;15.85;;;8.75;;
65271;SDS011;51868;48.812;8.198;2023-02-07T05:47:51;14.25;;;8.60;;
65271;SDS011;51868;48.812;8.198;2023-02-07T05:50:19;14.32;;;7.60;;
65271;SDS011;51868;48.812;8.198;2023-02-07T05:52:48;16.50;;;8.82;;
65271;SDS011;51868;48.812;8.198;2023-02-07T05:55:16;16.27;;;9.00;;
65271;SDS011;51868;48.812;8.198;2023-02-07T05:57:43;17.35;;;9.68;;
65271;SDS011;51868;48.812;8.198;2023-02-07T06:00:12;16.27;;;9.70;;
65271;SDS011;51868;48.812;8.198;2023-02-07T06:02:42;16.33;;;9.77;;
65271;SDS011;51868;48.812;8.198;2023-02-07T06:05:11;17.23;;;9.55;;
65271;SDS011;51868;48.812;8.198;2023-02-07T06:07:39;17.75;;;10.00;;
65271;SDS011;51868;48.812;8.198;2023-02-07T06:10:09;18.67;;;9.70;;
65271;SDS011;51868;48.812;8.198;2023-02-07T06:12:37;16.42;;;10.07;;
65271;SDS011;51868;48.812;8.198;2023-02-07T06:15:05;20.15;;;10.65;;
65271;SDS011;51868;48.812;8.198;2023-02-07T06:17:34;19.48;;;10.65;;
65271;SDS011;51868;48.812;8.198;2023-02-07T06:20:02;17.20;;;10.68;;
65271;SDS011;51868;48.812;8.198;2023-02-07T06:22:30;18.40;;;10.45;;
65271;SDS011;51868;48.812;8.198;2023-02-07T06:24:58;15.95;;;9.85;;
65271;SDS011;51868;48.812;8.198;2023-02-07T06:27:28;18.05;;;9.75;;
65271;SDS011;51868;48.812;8.198;2023-02-07T06:29:55;19.30;;;10.77;;
65271;SDS011;51868;48.812;8.198;2023-02-07T06:32:23;16.42;;;9.75;;
65271;SDS011;51868;48.812;8.198;2023-02-07T06:34:51;17.33;;;10.57;;
65271;SDS011;51868;48.812;8.198;2023-02-07T06:37:18;18.05;;;10.73;;
65271;SDS011;51868;48.812;8.198;2023-02-07T06:39:46;17.45;;;10.45;;
65271;SDS011;51868;48.812;8.198;2023-02-07T06:42:14;16.05;;;11.13;;
65271;SDS011;51868;48.812;8.198;2023-02-07T06:44:43;17.25;;;9.90;;
65271;SDS011;51868;48.812;8.198;2023-02-07T06:47:10;15.85;;;10.05;;
65271;SDS011;51868;48.812;8.198;2023-02-07T06:49:38;18.33;;;10.70;;
65271;SDS011;51868;48.812;8.198;2023-02-07T06:52:06;16.88;;;10.27;;
65271;SDS011;51868;48.812;8.198;2023-02-07T06:54:33;21.27;;;10.40;;
65271;SDS011;51868;48.812;8.198;2023-02-07T06:57:01;20.95;;;11.73;;
65271;SDS011;51868;48.812;8.198;2023-02-07T06:59:29;17.35;;;10.35;;
65271;SDS011;51868;48.812;8.198;2023-02-07T07:01:58;17.30;;;10.85;;
65271;SDS011;51868;48.812;8.198;2023-02-07T07:04:26;19.88;;;11.85;;
65271;SDS011;51868;48.812;8.198;2023-02-07T07:06:54;17.30;;;10.13;;
65271;SDS011;51868;48.812;8.198;2023-02-07T07:09:21;19.52;;;11.10;;
65271;SDS011;51868;48.812;8.198;2023-02-07T07:11:49;18.63;;;11.23;;
65271;SDS011;51868;48.812;8.198;2023-02-07T07:14:17;17.17;;;10.48;;
65271;SDS011;51868;48.812;8.198;2023-02-07T07:16:45;16.90;;;11.40;;
65271;SDS011;51868;48.812;8.198;2023-02-07T07:19:14;19.17;;;11.75;;
65271;SDS011;51868;48.812;8.198;2023-02-07T07:21:42;20.90;;;11.18;;
65271;SDS011;51868;48.812;8.198;2023-02-07T07:24:09;19.45;;;12.13;;
65271;SDS011;51868;48.812;8.198;2023-02-07T07:26:37;24.15;;;13.07;;
65271;SDS011;51868;48.812;8.198;2023-02-07T07:29:15;22.65;;;12.07;;
65271;SDS011;51868;48.812;8.198;2023-02-07T07:31:43;21.83;;;11.77;;
65271;SDS011;51868;48.812;8.198;2023-02-07T07:34:11;21.35;;;11.40;;
65271;SDS011;51868;48.812;8.198;2023-02-07T07:36:40;20.63;;;12.30;;
65271;SDS011;51868;48.812;8.198;2023-02-07T07:39:09;22.10;;;11.98;;
65271;SDS011;51868;48.812;8.198;2023-02-07T07:41:37;18.92;;;11.70;;
65271;SDS011;51868;48.812;8.198;2023-02-07T07:44:04;24.17;;;12.88;;
65271;SDS011;51868;48.812;8.198;2023-02-07T07:46:32;23.08;;;12.52;;
65271;SDS011;51868;48.812;8.198;2023-02-07T07:49:00;20.92;;;12.30;;
65271;SDS011;51868;48.812;8.198;2023-02-07T07:51:27;19.52;;;11.07;;
65271;SDS011;51868;48.812;8.198;2023-02-07T07:53:56;20.42;;;12.02;;
65271;SDS011;51868;48.812;8.198;2023-02-07T07:56:24;22.95;;;12.60;;
65271;SDS011;51868;48.812;8.198;2023-02-07T07:58:54;19.60;;;11.52;;
65271;SDS011;51868;48.812;8.198;2023-02-07T08:01:22;23.15;;;13.20;;
65271;SDS011;51868;48.812;8.198;2023-02-07T08:03:49;22.15;;;13.00;;
65271;SDS011;51868;48.812;8.198;2023-02-07T08:06:17;22.50;;;12.10;;
65271;SDS011;51868;48.812;8.198;2023-02-07T08:08:45;36.95;;;19.05;;
65271;SDS011;51868;48.812;8.198;2023-02-07T08:11:15;36.33;;;15.20;;
65271;SDS011;51868;48.812;8.198;2023-02-07T08:13:42;27.15;;;15.73;;
65271;SDS011;51868;48.812;8.198;2023-02-07T08:16:10;24.00;;;13.57;;
65271;SDS011;51868;48.812;8.198;2023-02-07T08:18:38;21.77;;;12.95;;
65271;SDS011;51868;48.812;8.198;2023-02-07T08:21:05;21.63;;;12.23;;
65271;SDS011;51868;48.812;8.198;2023-02-07T08:23:33;18.45;;;11.50;;
65271;SDS011;51868;48.812;8.198;2023-02-07T08:26:01;20.85;;;12.07;;
65271;SDS011;51868;48.812;8.198;2023-02-07T08:28:30;19.45;;;11.65;;
65271;SDS011;51868;48.812;8.198;2023-02-07T08:30:58;21.90;;;12.55;;
65271;SDS011;51868;48.812;8.198;2023-02-07T08:33:26;20.10;;;11.43;;
65271;SDS011;51868;48.812;8.198;2023-02-07T08:35:55;18.38;;;11.27;;
65271;SDS011;51868;48.812;8.198;2023-02-07T08:38:23;21.35;;;11.70;;
65271;SDS011;51868;48.812;8.198;2023-02-07T08:40:51;20.90;;;11.13;;
65271;SDS011;51868;48.812;8.198;2023-02-07T08:43:19;18.95;;;11.27;;
65271;SDS011;51868;48.812;8.198;2023-02-07T08:45:48;19.08;;;11.80;;
65271;SDS011;51868;48.812;8.198;2023-02-07T08:48:15;16.92;;;10.70;;
65271;SDS011;51868;48.812;8.198;2023-02-07T08:50:43;22.77;;;12.32;;
65271;SDS011;51868;48.812;8.198;2023-02-07T08:53:11;19.52;;;11.02;;
65271;SDS011;51868;48.812;8.198;2023-02-07T08:55:39;19.00;;;11.73;;
65271;SDS011;51868;48.812;8.198;2023-02-07T08:58:07;25.88;;;12.70;;
65271;SDS011;51868;48.812;8.198;2023-02-07T09:00:35;19.65;;;12.27;;
65271;SDS011;51868;48.812;8.198;2023-02-07T09:03:05;18.33;;;10.65;;
65271;SDS011;51868;48.812;8.198;2023-02-07T09:05:33;19.67;;;11.45;;
65271;SDS011;51868;48.812;8.198;2023-02-07T09:08:01;18.00;;;11.52;;
65271;SDS011;51868;48.812;8.198;2023-02-07T09:10:29;18.77;;;11.43;;
65271;SDS011;51868;48.812;8.198;2023-02-07T09:12:57;20.10;;;11.27;;
65271;SDS011;51868;48.812;8.198;2023-02-07T09:15:25;18.15;;;11.43;;
65271;SDS011;51868;48.812;8.198;2023-02-07T09:17:53;20.42;;;11.88;;
65271;SDS011;51868;48.812;8.198;2023-02-07T09:20:22;16.83;;;10.45;;
65271;SDS011;51868;48.812;8.198;2023-02-07T09:22:50;15.43;;;10.13;;
65271;SDS011;51868;48.812;8.198;2023-02-07T09:25:35;20.02;;;11.82;;
65271;SDS011;51868;48.812;8.198;2023-02-07T09:28:05;20.13;;;11.80;;
65271;SDS011;51868;48.812;8.198;2023-02-07T09:30:33;16.33;;;10.07;;
65271;SDS011;51868;48.812;8.198;2023-02-07T09:33:02;17.08;;;10.73;;
65271;SDS011;51868;48.812;8.198;2023-02-07T09:35:34;20.67;;;11.85;;
65271;SDS011;51868;48.812;8.198;2023-02-07T09:38:03;15.85;;;10.88;;
65271;SDS011;51868;48.812;8.198;2023-02-07T09:40:31;18.92;;;11.50;;
65271;SDS011;51868;48.812;8.198;2023-02-07T09:43:02;16.40;;;10.90;;
65271;SDS011;51868;48.812;8.198;2023-02-07T09:45:38;15.45;;;10.45;;
65271;SDS011;51868;48.812;8.198;2023-02-07T09:48:11;20.63;;;11.05;;
65271;SDS011;51868;48.812;8.198;2023-02-07T09:50:44;17.48;;;11.90;;
65271;SDS011;51868;48.812;8.198;2023-02-07T09:53:16;17.38;;;10.98;;
65271;SDS011;51868;48.812;8.198;2023-02-07T09:55:50;19.55;;;12.63;;
65271;SDS011;51868;48.812;8.198;2023-02-07T09:58:22;18.15;;;11.38;;
65271;SDS011;51868;48.812;8.198;2023-02-07T10:00:59;22.38;;;10.95;;
65271;SDS011;51868;48.812;8.198;2023-02-07T10:03:31;14.85;;;10.77;;
65271;SDS011;51868;48.812;8.198;2023-02-07T10:06:06;17.17;;;11.15;;
65271;SDS011;51868;48.812;8.198;2023-02-07T10:08:44;16.08;;;10.48;;
65271;SDS011;51868;48.812;8.198;2023-02-07T10:11:15;16.02;;;10.98;;
65271;SDS011;51868;48.812;8.198;2023-02-07T10:13:54;16.40;;;11.43;;
65271;SDS011;51868;48.812;8.198;2023-02-07T10:16:43;16.02;;;10.23;;
65271;SDS011;51868;48.812;8.198;2023-02-07T10:19:16;15.18;;;10.20;;
65271;SDS011;51868;48.812;8.198;2023-02-07T10:22:03;16.13;;;10.00;;
65271;SDS011;51868;48.812;8.198;2023-02-07T10:24:50;16.98;;;10.35;;
65271;SDS011;51868;48.812;8.198;2023-02-07T10:27:30;17.33;;;9.68;;
65271;SDS011;51868;48.812;8.198;2023-02-07T10:30:03;16.73;;;10.27;;
65271;SDS011;51868;48.812;8.198;2023-02-07T10:32:37;18.33;;;9.90;;
65271;SDS011;51868;48.812;8.198;2023-02-07T10:35:07;12.68;;;8.98;;
65271;SDS011;51868;48.812;8.198;2023-02-07T10:37:44;13.18;;;9.30;;
65271;SDS011;51868;48.812;8.198;2023-02-07T10:40:15;15.02;;;10.23;;
65271;SDS011;51868;48.812;8.198;2023-02-07T10:42:50;15.23;;;9.18;;
65271;SDS011;51868;48.812;8.198;2023-02-07T10:45:20;14.27;;;9.95;;
65271;SDS011;51868;48.812;8.198;2023-02-07T10:47:48;16.52;;;9.35;;
65271;SDS011;51868;48.812;8.198;2023-02-07T10:50:17;14.13;;;10.13;;
65271;SDS011;51868;48.812;8.198;2023-02-07T10:52:57;12.45;;;8.88;;
65271;SDS011;51868;48.812;8.198;2023-02-07T10:55:35;13.20;;;8.93;;
65271;SDS011;51868;48.812;8.198;2023-02-07T10:58:08;11.63;;;8.55;;
65271;SDS011;51868;48.812;8.198;2023-02-07T11:00:48;13.38;;;9.68;;
65271;SDS011;51868;48.812;8.198;2023-02-07T11:03:18;14.45;;;9.90;;
65271;SDS011;51868;48.812;8.198;2023-02-07T11:05:52;15.38;;;9.15;;
65271;SDS011;51868;48.812;8.198;2023-02-07T11:08:24;14.65;;;10.05;;
65271;SDS011;51868;48.812;8.198;2023-02-07T11:10:54;12.35;;;9.38;;
65271;SDS011;51868;48.812;8.198;2023-02-07T11:13:23;15.63;;;9.38;;
65271;SDS011;51868;48.812;8.198;2023-02-07T11:15:55;13.38;;;9.15;;
65271;SDS011;51868;48.812;8.198;2023-02-07T11:18:33;14.02;;;9.63;;
65271;SDS011;51868;48.812;8.198;2023-02-07T11:21:05;13.82;;;9.38;;
65271;SDS011;51868;48.812;8.198;2023-02-07T11:23:36;10.85;;;8.50;;
65271;SDS011;51868;48.812;8.198;2023-02-07T11:26:09;13.75;;;9.15;;
65271;SDS011;51868;48.812;8.198;2023-02-07T11:28:39;16.55;;;10.02;;
65271;SDS011;51868;48.812;8.198;2023-02-07T11:31:09;13.25;;;9.25;;
65271;SDS011;51868;48.812;8.198;2023-02-07T11:33:41;13.30;;;9.20;;
65271;SDS011;51868;48.812;8.198;2023-02-07T11:36:12;12.23;;;8.30;;
65271;SDS011;51868;48.812;8.198;2023-02-07T11:38:54;12.75;;;9.57;;
65271;SDS011;51868;48.812;8.198;2023-02-07T11:41:24;14.65;;;8.85;;
65271;SDS011;51868;48.812;8.198;2023-02-07T11:43:54;12.77;;;9.40;;
65271;SDS011;51868;48.812;8.198;2023-02-07T11:46:32;14.05;;;9.50;;
65271;SDS011;51868;48.812;8.198;2023-02-07T11:49:03;13.63;;;9.43;;
65271;SDS011;51868;48.812;8.198;2023-02-07T11:51:34;15.60;;;9.00;;
65271;SDS011;51868;48.812;8.198;2023-02-07T11:54:04;13.50;;;9.02;;
65271;SDS011;51868;48.812;8.198;2023-02-07T11:56:35;13.00;;;9.18;;
65271;SDS011;51868;48.812;8.198;2023-02-07T11:59:05;12.70;;;9.02;;
65271;SDS011;51868;48.812;8.198;2023-02-07T12:01:37;10.38;;;7.93;;
65271;SDS011;51868;48.812;8.198;2023-02-07T12:04:07;11.68;;;8.25;;
65271;SDS011;51868;48.812;8.198;2023-02-07T12:06:38;14.43;;;9.30;;
65271;SDS011;51868;48.812;8.198;2023-02-07T12:09:15;12.90;;;8.40;;
65271;SDS011;51868;48.812;8.198;2023-02-07T12:11:49;12.35;;;9.20;;
65271;SDS011;51868;48.812;8.198;2023-02-07T12:14:23;12.85;;;8.57;;
65271;SDS011;51868;48.812;8.198;2023-02-07T12:16:57;15.93;;;9.13;;
65271;SDS011;51868;48.812;8.198;2023-02-07T12:19:27;14.90;;;8.98;;
65271;SDS011;51868;48.812;8.198;2023-02-07T12:22:00;15.07;;;8.57;;
65271;SDS011;51868;48.812;8.198;2023-02-07T12:24:33;12.30;;;8.30;;
65271;SDS011;51868;48.812;8.198;2023-02-07T12:27:05;14.52;;;9.02;;
65271;SDS011;51868;48.812;8.198;2023-02-07T12:29:53;12.60;;;8.57;;
65271;SDS011;51868;48.812;8.198;2023-02-07T12:32:29;13.02;;;8.75;;
65271;SDS011;51868;48.812;8.198;2023-02-07T12:35:05;17.33;;;8.93;;
65271;SDS011;51868;48.812;8.198;2023-02-07T12:37:43;12.63;;;8.55;;
65271;SDS011;51868;48.812;8.198;2023-02-07T12:40:20;12.32;;;8.50;;
65271;SDS011;51868;48.812;8.198;2023-02-07T12:42:55;12.65;;;8.27;;
65271;SDS011;51868;48.812;8.198;2023-02-07T12:45:30;11.57;;;8.45;;
65271;SDS011;51868;48.812;8.198;2023-02-07T12:48:09;11.38;;;8.25;;
65271;SDS011;51868;48.812;8.198;2023-02-07T12:50:45;12.27;;;8.52;;
65271;SDS011;51868;48.812;8.198;2023-02-07T12:53:25;13.55;;;9.15;;
65271;SDS011;51868;48.812;8.198;2023-02-07T12:56:07;11.55;;;8.38;;
65271;SDS011;51868;48.812;8.198;2023-02-07T12:58:48;11.25;;;8.38;;
65271;SDS011;51868;48.812;8.198;2023-02-07T13:01:27;12.95;;;8.90;;
65271;SDS011;51868;48.812;8.198;2023-02-07T13:04:08;13.32;;;8.82;;
65271;SDS011;51868;48.812;8.198;2023-02-07T13:07:03;12.07;;;8.00;;
65271;SDS011;51868;48.812;8.198;2023-02-07T13:09:41;11.68;;;8.10;;
65271;SDS011;51868;48.812;8.198;2023-02-07T13:12:18;11.63;;;8.20;;
65271;SDS011;51868;48.812;8.198;2023-02-07T13:14:55;12.82;;;8.50;;
65271;SDS011;51868;48.812;8.198;2023-02-07T13:17:36;11.20;;;8.85;;
65271;SDS011;51868;48.812;8.198;2023-02-07T13:20:17;11.85;;;8.70;;
65271;SDS011;51868;48.812;8.198;2023-02-07T13:23:09;15.32;;;9.93;;
65271;SDS011;51868;48.812;8.198;2023-02-07T13:25:43;12.13;;;9.32;;
65271;SDS011;51868;48.812;8.198;2023-02-07T13:28:17;12.13;;;9.05;;
65271;SDS011;51868;48.812;8.198;2023-02-07T13:30:51;12.35;;;9.48;;
65271;SDS011;51868;48.812;8.198;2023-02-07T13:33:25;12.73;;;9.45;;
65271;SDS011;51868;48.812;8.198;2023-02-07T13:35:57;11.13;;;9.65;;
65271;SDS011;51868;48.812;8.198;2023-02-07T13:38:44;12.50;;;10.07;;
65271;SDS011;51868;48.812;8.198;2023-02-07T13:41:22;11.57;;;8.88;;
65271;SDS011;51868;48.812;8.198;2023-02-07T13:44:01;11.20;;;9.43;;
65271;SDS011;51868;48.812;8.198;2023-02-07T13:46:46;10.30;;;9.05;;
65271;SDS011;51868;48.812;8.198;2023-02-07T13:49:39;12.55;;;9.57;;
65271;SDS011;51868;48.812;8.198;2023-02-07T13:52:13;11.63;;;9.35;;
65271;SDS011;51868;48.812;8.198;2023-02-07T13:54:50;10.90;;;9.75;;
65271;SDS011;51868;48.812;8.198;2023-02-07T13:57:37;21.25;;;15.55;;
65271;SDS011;51868;48.812;8.198;2023-02-07T14:00:26;21.63;;;14.90;;
65271;SDS011;51868;48.812;8.198;2023-02-07T14:02:57;16.83;;;11.05;;
65271;SDS011;51868;48.812;8.198;2023-02-07T14:05:27;11.88;;;10.57;;
65271;SDS011;51868;48.812;8.198;2023-02-07T14:07:57;20.85;;;13.98;;
65271;SDS011;51868;48.812;8.198;2023-02-07T14:10:41;12.05;;;10.27;;
65271;SDS011;51868;48.812;8.198;2023-02-07T14:13:19;13.38;;;10.65;;
65271;SDS011;51868;48.812;8.198;2023-02-07T14:15:55;15.82;;;12.65;;
65271;SDS011;51868;48.812;8.198;2023-02-07T14:18:41;16.77;;;12.93;;
65271;SDS011;51868;48.812;8.198;2023-02-07T14:21:28;17.33;;;11.75;;
65271;SDS011;51868;48.812;8.198;2023-02-07T14:24:28;13.18;;;10.35;;
65271;SDS011;51868;48.812;8.198;2023-02-07T14:27:02;16.27;;;12.60;;
65271;SDS011;51868;48.812;8.198;2023-02-07T14:29:38;12.63;;;9.60;;
65271;SDS011;51868;48.812;8.198;2023-02-07T14:35:02;13.52;;;9.57;;
65271;SDS011;51868;48.812;8.198;2023-02-07T14:37:43;9.95;;;8.50;;
65271;SDS011;51868;48.812;8.198;2023-02-07T14:40:18;14.20;;;9.75;;
65271;SDS011;51868;48.812;8.198;2023-02-07T14:42:54;12.38;;;9.85;;
65271;SDS011;51868;48.812;8.198;2023-02-07T14:45:26;11.05;;;9.55;;
65271;SDS011;51868;48.812;8.198;2023-02-07T14:47:57;14.32;;;9.27;;
65271;SDS011;51868;48.812;8.198;2023-02-07T14:50:26;13.18;;;9.10;;
65271;SDS011;51868;48.812;8.198;2023-02-07T14:52:59;13.20;;;9.27;;
65271;SDS011;51868;48.812;8.198;2023-02-07T14:55:30;12.25;;;9.38;;
65271;SDS011;51868;48.812;8.198;2023-02-07T14:58:02;13.52;;;9.38;;
65271;SDS011;51868;48.812;8.198;2023-02-07T15:00:35;13.07;;;8.63;;
65271;SDS011;51868;48.812;8.198;2023-02-07T15:03:11;14.18;;;8.82;;
65271;SDS011;51868;48.812;8.198;2023-02-07T15:05:46;12.35;;;8.55;;